EA4DB Madrid ES current weather conditions

sailwx.info

Air temperature 12.2° C
Dewpoint 5.8° C

Last reported at 2016-Jun-01 03:55 UTC.
Time now 2016-Jun-01 05:35 UTC

Location: N 40°25' W 003°39'.
View on Google Maps.

See reports from other nearby stations

  
Tides and Currents Weather Stations Pressure Air Temp Water Temp Dewpoint Dewpoint Depression Visibility Wind Speed Wind Dir Waves Ship Positions
date/time (UTC)wind fromknots sea level pressurealtimeterstation pressurevisibilityair tempwater tempwave heightnotes
2016-Jun-01 03:55 12.2
2016-Jun-01 03:45 12.8
2016-Jun-01 03:33 270 0 gusting 2 12.8
2016-Jun-01 03:23 12.8
2016-Jun-01 03:13 13.9
2016-Jun-01 03:03 13.9
2016-Jun-01 02:53 13.9
2016-Jun-01 02:43 090 0 gusting 2 13.9
2016-Jun-01 02:33 090 0 gusting 3 13.9
2016-Jun-01 02:23 180 0 gusting 3 14.4
2016-Jun-01 02:12 180 14.4
2016-Jun-01 02:02 225 14.4
2016-Jun-01 01:52 315 0 gusting 2 15.0
2016-Jun-01 01:42 15.0
2016-Jun-01 01:32 315 14.4
2016-Jun-01 01:22 14.4
2016-Jun-01 01:10 15.0
2016-Jun-01 01:00 225 15.0
2016-Jun-01 00:50 14.4
2016-Jun-01 00:40 15.0
2016-Jun-01 00:30 15.0
2016-Jun-01 00:20 15.6
2016-Jun-01 00:09 15.0
2016-May-31 23:59 090 0 gusting 2 15.6
2016-May-31 23:49 315 0 gusting 2 15.6
2016-May-31 23:39 135 2 gusting 5 16.7
2016-May-31 23:29 270 1 gusting 3 16.7
2016-May-31 23:19 090 2 gusting 6 17.2
2016-May-31 23:07 270 3 gusting 6 18.3
2016-May-31 22:57 090 2 gusting 5 17.8
2016-May-31 22:47 18.3
2016-May-31 22:34 18.3
2016-May-31 22:24 18.9
2016-May-31 22:14 270 2 gusting 6 18.9
2016-May-31 22:04 180 2 gusting 5 18.9
2016-May-31 21:54 315 3 gusting 6 18.9
2016-May-31 21:44 270 5 gusting 7 18.9
2016-May-31 21:34 270 4 gusting 8 18.9
2016-May-31 21:24 135 2 gusting 5 19.4
2016-May-31 21:14 270 3 gusting 8 18.9
2016-May-31 21:04 315 2 gusting 5 19.4
2016-May-31 20:54 135 1 gusting 5 18.9
2016-May-31 20:44 315 5 gusting 10 20.0
2016-May-31 20:34 090 6 gusting 10 19.4
2016-May-31 20:24 090 1 gusting 5 20.0
2016-May-31 20:14 090 20.0
2016-May-31 20:04 315 0 gusting 5 20.6
2016-May-31 19:54 270 1 gusting 5 21.1
2016-May-31 19:44 315 3 gusting 6 20.6
2016-May-31 19:34 090 3 gusting 7 21.7
2016-May-31 19:24 22.2
2016-May-31 19:14 270 2 gusting 7 22.8
2016-May-31 19:04 270 5 gusting 8 23.3
2016-May-31 18:54 270 3 gusting 7 23.9
2016-May-31 18:44 24.4
2016-May-31 18:34 112 2 gusting 6 25.0
2016-May-31 18:24 270 2 gusting 7 25.6
2016-May-31 18:14 270 0 gusting 4 25.0
2016-May-31 18:04 270 4 gusting 8 25.0
2016-May-31 17:54 25.6
2016-May-31 17:44 270 5 gusting 7 25.6
2016-May-31 17:33 090 2 gusting 6 25.6
2016-May-31 17:23 315 2 gusting 4 25.6
2016-May-31 17:13 090 0 gusting 3 25.6
2016-May-31 17:01 180 26.1
2016-May-31 16:51 270 2 gusting 5 26.1
2016-May-31 16:41 270 26.7
2016-May-31 16:31 270 1 gusting 5 26.1
2016-May-31 16:21 270 2 gusting 4 26.7
2016-May-31 16:11 24.4
2016-May-31 16:01 270 1 gusting 4 25.0
2016-May-31 15:51 135 2 gusting 5 25.6
2016-May-31 15:41 270 5 gusting 7 25.6
2016-May-31 15:31 225 27.2
2016-May-31 15:21 315 2 gusting 10 26.7
2016-May-31 15:10 225 2 gusting 4 25.6
2016-May-31 15:00 315 1 gusting 4 25.6
2016-May-31 14:50 25.6
2016-May-31 14:40 225 25.6
2016-May-31 14:30 225 24.4
2016-May-31 14:19 270 2 gusting 4 25.6
2016-May-31 14:09 090 26.1
2016-May-31 13:59 090 2 gusting 5 26.1
2016-May-31 13:49 26.7
2016-May-31 13:39 090 2 gusting 4 26.7
2016-May-31 13:29 270 3 gusting 7 27.2
2016-May-31 13:18 135 25.6
2016-May-31 13:08 270 25.6
2016-May-31 12:58 25.0
2016-May-31 12:48 270 4 gusting 8 24.4
2016-May-31 12:38 25.0
2016-May-31 12:28 270 0 gusting 2 23.3
2016-May-31 12:18 315 1 gusting 3 23.9
2016-May-31 12:08 315 0 gusting 2 23.9
2016-May-31 11:58 135 1 gusting 4 24.4
2016-May-31 11:48 225 1 gusting 3 23.9
2016-May-31 11:38 315 0 gusting 5 24.4
2016-May-31 11:28 247 5 gusting 10 24.4
2016-May-31 11:18 090 25.0
2016-May-31 11:08 23.9
2016-May-31 10:58 090 0 gusting 3 23.3
2016-May-31 10:48 315 0 gusting 2 22.8
2016-May-31 10:38 315 0 gusting 5 23.9
2016-May-31 10:28 247 1 gusting 5 22.8
2016-May-31 10:18 247 2 gusting 5 23.3
2016-May-31 10:08 315 1 gusting 3 22.8
2016-May-31 09:58 315 2 gusting 4 21.7
2016-May-31 09:47 225 1 gusting 3 21.1
2016-May-31 09:37 270 2 gusting 7 21.7
2016-May-31 09:27 315 0 gusting 2 21.7
2016-May-31 09:16 20.6
2016-May-31 09:06 090 2 gusting 5 20.0
2016-May-31 08:56 315 2 gusting 6 20.0
2016-May-31 08:46 20.6
2016-May-31 08:36 315 3 gusting 7 18.9
2016-May-31 08:26 090 3 gusting 10 19.4
2016-May-31 08:16 180 1 gusting 5 19.4
2016-May-31 08:06 315 0 gusting 2 19.4
2016-May-31 07:56 18.3
2016-May-31 07:46 18.3
2016-May-31 07:37 17.8
2016-May-31 07:26 292 2 gusting 5 17.8
2016-May-31 07:16 315 2 gusting 5 17.8
2016-May-31 07:06 315 2 gusting 6 17.8
2016-May-31 06:56 16.7
2016-May-31 06:46 315 1 gusting 3 16.1
2016-May-31 06:36 090 0 gusting 5 15.6
2016-May-31 06:26 270 1 gusting 3 16.1
2016-May-31 06:16 270 0 gusting 1 14.4
2016-May-31 06:06 14.4
2016-May-31 05:56 13.9
2016-May-31 05:46 12.8
2016-May-31 05:36 12.2
2016-May-31 05:26 225 1 gusting 2 11.7
2016-May-31 05:16 12.2
2016-May-31 05:06 12.2
2016-May-31 04:56 11.7
2016-May-31 04:46 11.7
2016-May-31 04:35 12.2
2016-May-31 04:25 12.2
2016-May-31 04:15 135 12.2
2016-May-31 04:05 11.7
2016-May-31 03:55 12.2
2016-May-31 03:45 11.7
2016-May-31 03:34 12.2
2016-May-31 03:24 11.7
2016-May-31 03:14 12.8
2016-May-31 03:04 12.2
2016-May-31 02:54 12.8
2016-May-31 02:44 12.8
2016-May-31 02:34 13.3
2016-May-31 02:24 12.8
2016-May-31 02:14 13.3
2016-May-31 02:04 13.3
2016-May-31 01:54 14.4
2016-May-31 01:42 13.9
2016-May-31 01:32 13.9
2016-May-31 01:22 14.4
2016-May-31 01:12 13.9
2016-May-31 01:02 14.4
2016-May-31 00:52 247 0 gusting 2 14.4
2016-May-31 00:42 270 0 gusting 2 15.0
2016-May-31 00:32 090 0 gusting 2 15.0
2016-May-31 00:22 14.4
2016-May-31 00:12 15.0
2016-May-31 00:02 14.4
2016-May-30 23:52 14.4
2016-May-30 23:42 15.0
2016-May-30 23:32 15.6
2016-May-30 23:21 15.6
2016-May-30 23:11 315 15.6
2016-May-30 23:01 135 15.6
2016-May-30 22:51 225 0 gusting 6 15.6
2016-May-30 22:41 16.7
2016-May-30 22:31 090 0 gusting 4 17.2
2016-May-30 22:21 16.7
2016-May-30 22:11 225 0 gusting 2 17.8
2016-May-30 22:01 315 0 gusting 2 17.2
2016-May-30 21:51 315 17.2
2016-May-30 21:41 270 1 gusting 3 17.8
2016-May-30 21:31 17.2
2016-May-30 21:20 315 0 gusting 2 17.8
2016-May-30 21:10 270 2 gusting 4 18.3
2016-May-30 21:00 225 2 gusting 5 17.8
2016-May-30 20:50 270 1 gusting 4 18.3
2016-May-30 20:40 315 1 gusting 3 17.8
2016-May-30 20:30 090 1 gusting 5 18.3
2016-May-30 20:19 225 3 gusting 6 19.4
2016-May-30 20:09 270 18.9
2016-May-30 19:59 225 18.9
2016-May-30 19:49 315 1 gusting 4 19.4
2016-May-30 19:39 225 1 gusting 2 20.0
2016-May-30 19:29 225 2 gusting 5 20.6
2016-May-30 19:19 315 2 gusting 3 21.1
2016-May-30 19:09 090 2 gusting 5 21.1
2016-May-30 18:58 315 1 gusting 5 21.7
2016-May-30 18:48 22.2
2016-May-30 18:38 270 1 gusting 7 22.8
2016-May-30 18:28 180 2 gusting 6 22.8
2016-May-30 18:18 315 2 gusting 4 22.8
2016-May-30 18:07 225 0 gusting 2 22.8
2016-May-30 17:57 315 3 gusting 6 22.8
2016-May-30 17:47 180 0 gusting 2 22.2
2016-May-30 17:37 315 3 gusting 5 22.8
2016-May-30 17:27 315 0 gusting 5 22.8
2016-May-30 17:16 315 22.8
2016-May-30 17:06 315 6 gusting 11 22.8
2016-May-30 16:56 315 2 gusting 6 23.3
2016-May-30 16:46 315 0 gusting 2 23.3
2016-May-30 16:36 315 2 gusting 6 22.8
2016-May-30 16:25 270 2 gusting 6 23.3
2016-May-30 16:15 270 5 gusting 7 22.8
2016-May-30 16:05 270 3 gusting 7 23.9
2016-May-30 15:55 23.9
2016-May-30 15:45 270 2 gusting 4 23.3
2016-May-30 15:35 270 0 gusting 2 22.8
2016-May-30 15:24 225 5 gusting 8 21.1
2016-May-30 15:14 270 5 gusting 8 22.2
2016-May-30 15:04 22.2
2016-May-30 14:54 270 4 gusting 7 21.7
2016-May-30 14:44 315 4 gusting 6 21.7
2016-May-30 14:34 315 4 gusting 7 22.2
2016-May-30 14:23 22.2
2016-May-30 14:13 315 3 gusting 8 22.8
2016-May-30 14:03 315 5 gusting 7 22.2
2016-May-30 13:53 270 3 gusting 10 22.8
2016-May-30 13:43 135 22.2
2016-May-30 13:33 315 1 gusting 5 22.8
2016-May-30 13:22 225 3 gusting 7 21.1
2016-May-30 13:12 225 3 gusting 6 20.6
2016-May-30 13:02 225 4 gusting 9 20.6
2016-May-30 12:52 090 1 gusting 4 21.1
2016-May-30 12:42 225 1 gusting 4 23.3
2016-May-30 12:32 225 2 gusting 5 22.2
2016-May-30 12:21 225 1 gusting 5 22.8
2016-May-30 12:11 21.7
2016-May-30 12:02 270 2 gusting 6 21.1
2016-May-30 11:51 315 2 gusting 7 20.6
2016-May-30 11:41 315 2 gusting 5 22.2
2016-May-30 11:31 225 5 gusting 8 22.2
2016-May-30 11:21 225 2 gusting 6 22.2
2016-May-30 11:11 225 1 gusting 4 21.1
2016-May-30 11:01 180 1 gusting 5 19.4
2016-May-30 10:51 225 4 gusting 6 20.6
2016-May-30 10:41 270 4 gusting 7 20.0
2016-May-30 10:31 270 19.4
2016-May-30 10:21 270 1 gusting 5 19.4
2016-May-30 10:11 270 3 gusting 6 20.6
2016-May-30 10:01 180 21.7
2016-May-30 09:51 21.1
2016-May-30 09:41 270 0 gusting 2 22.8
2016-May-30 09:29 21.7
2016-May-30 09:19 225 0 gusting 2 22.2
2016-May-30 09:09 135 0 gusting 2 20.6
2016-May-30 08:59 21.1
2016-May-30 08:49 225 21.1
2016-May-30 08:39 180 0 gusting 2 18.9
2016-May-30 08:29 225 0 gusting 3 20.0
2016-May-30 08:19 135 18.9
2016-May-30 08:09 270 2 gusting 4 17.8
2016-May-30 07:59 225 1 gusting 4 17.8
2016-May-30 07:49 225 17.8
2016-May-30 07:39 270 1 gusting 3 20.0
2016-May-30 07:29 225 19.4
2016-May-30 07:17 225 0 gusting 2 17.8
2016-May-30 07:07 17.8
2016-May-30 06:57 16.1
2016-May-30 06:46 15.0
2016-May-30 06:36 14.4
2016-May-30 06:26 14.4
2016-May-30 06:16 247 1 gusting 2 13.9
2016-May-30 06:06 14.4
2016-May-30 05:55 247 13.3
2016-May-30 05:45 13.3
2016-May-30 05:35 225 13.3
2016-May-30 05:25 292 0 gusting 3 13.3
2016-May-30 05:15 225 0 gusting 2 12.8
2016-May-30 05:04 270 0 gusting 3 12.8